Aérodrome :
LOGIN :

S'inscrire | Disclaimer

   EN    FR    IT 

 










Légende :    VFR   VFR Marginal   IFR   IFR Intensif   IFR Très Intensif
Visi : 
Plafond : 
>= 8 km
>= 3000ft
5 à 8 km
1000 à 3000 ft
1500m à 5 km
500 à 1000 ft
800 à 1500m
200 à 500 ft
< 800m
< 200 ft
Symboles :   Orages  Brouillard  Fortes neiges  Fortes précipitations  Vent > 20 kt
SIGMETs :   Divers  Orages  Givrage  Turbulence  Onde Orograph.  Cendres Volcan.






- Altitude de l'aérodrome : 1017 ft


LFSL - Brive Souillac

DERNIER METAR :
  • 041630Z AUTO 24008KT 160V300 9999 BKN027/// BKN035/// BKN070/// ///CB 21/16 Q1013 TEMPO 22015G25KT 4000 SHRA BKN008 BKN030TCU

METARs EXPIRÉS :
  • 041600Z AUTO 24007KT 190V340 9999 BKN028/// BKN036/// OVC076/// ///TCU 22/16 Q1013 TEMPO 22015G25KT 4000 SHRA BKN020CB
  • 041530Z AUTO 24006KT 170V320 9999 BKN029 BKN072 22/16 Q1013 TEMPO 22015G25KT 4000 SHRA BKN020CB
  • 041500Z AUTO 23007KT 170V280 9999 FEW026 BKN032 BKN040 22/16 Q1013 TEMPO 22015G25KT 4000 SHRA BKN020CB
  • 041430Z AUTO 23008KT 180V300 9999 SCT028/// BKN035/// ///CB 23/17 Q1013 TEMPO 22015G25KT BKN008 BKN030TCU
  • 041400Z AUTO 25007KT 180V330 9999 FEW018/// BKN027/// BKN032/// ///CB 22/17 Q1013 TEMPO 22015G25KT 4000 SHRA BKN008 BKN030TCU
  • 041330Z AUTO 18005KT 140V230 9999 BKN020/// BKN060/// OVC082/// ///CB 21/18 Q1013 TEMPO 22015G25KT 4000 SHRA BKN008 BKN030TCU

TAF TAF LFSL
Valide du 04 à 15h jusqu'au 05 à 00h UTC


041400Z 0415/0424 22007KT 9999 BKN030 SCT040TCU
TEMPO 0415/0421 22015G25KT 4000 SHRA BKN008 BKN030TCU
PROB30
TEMPO 0415/0418 TSRA BKN020CB



MET'MAP, la Météo Aéronautique d'un coup d'oeil ! - Copyright ORBIFLY Décembre 2007 - Disclaimer

ORBIFLY MET'MAP TEAM :

Programmation & Développement : Alexandra Zaïnal
Sur une idée originale de : Baudouin d'Aumeries
Assistance à la programmation : Marc-Olivier Méhu
Soutien technique & logistique : Manuel Goepfert

Contact : metmap@orbifly.com




SOURCES & CREDITS :

   NOAA